sensor_id;sensor_type;location;lat;lon;timestamp;pressure;altitude;pressure_sealevel;temperature;humidity
77526;BME280;66627;29.424;-98.496;2023-03-05T00:02:15;98668.42;;;26.75;18.17
77526;BME280;66627;29.424;-98.496;2023-03-05T00:04:40;98667.28;;;27.35;17.96
77526;BME280;66627;29.424;-98.496;2023-03-05T00:07:06;98673.25;;;26.66;18.64
77526;BME280;66627;29.424;-98.496;2023-03-05T00:09:31;98678.35;;;26.39;18.83
77526;BME280;66627;29.424;-98.496;2023-03-05T00:11:56;98676.17;;;27.34;18.74
77526;BME280;66627;29.424;-98.496;2023-03-05T00:14:21;98676.93;;;26.99;18.46
77526;BME280;66627;29.424;-98.496;2023-03-05T00:16:47;98680.26;;;27.05;18.55
77526;BME280;66627;29.424;-98.496;2023-03-05T00:19:12;98684.63;;;26.87;18.50
77526;BME280;66627;29.424;-98.496;2023-03-05T00:21:40;98686.44;;;27.01;18.45
77526;BME280;66627;29.424;-98.496;2023-03-05T00:24:05;98692.67;;;26.87;18.67
77526;BME280;66627;29.424;-98.496;2023-03-05T00:26:29;98693.34;;;26.41;19.16
77526;BME280;66627;29.424;-98.496;2023-03-05T00:28:55;98695.17;;;26.58;19.11
77526;BME280;66627;29.424;-98.496;2023-03-05T00:31:21;98698.45;;;26.02;19.48
77526;BME280;66627;29.424;-98.496;2023-03-05T00:33:44;98702.87;;;26.24;19.32
77526;BME280;66627;29.424;-98.496;2023-03-05T00:36:10;98705.74;;;25.92;19.51
77526;BME280;66627;29.424;-98.496;2023-03-05T00:38:35;98707.10;;;25.56;20.14
77526;BME280;66627;29.424;-98.496;2023-03-05T00:41:00;98706.89;;;25.42;19.52
77526;BME280;66627;29.424;-98.496;2023-03-05T00:43:26;98708.63;;;25.98;19.46
77526;BME280;66627;29.424;-98.496;2023-03-05T00:45:51;98709.82;;;25.82;19.41
77526;BME280;66627;29.424;-98.496;2023-03-05T00:48:16;98713.64;;;25.41;19.26
77526;BME280;66627;29.424;-98.496;2023-03-05T00:50:41;98712.41;;;25.55;19.62
77526;BME280;66627;29.424;-98.496;2023-03-05T00:53:06;98714.71;;;25.47;19.75
77526;BME280;66627;29.424;-98.496;2023-03-05T00:55:31;98715.85;;;24.80;20.35
77526;BME280;66627;29.424;-98.496;2023-03-05T00:57:57;98716.48;;;24.91;20.47
77526;BME280;66627;29.424;-98.496;2023-03-05T01:00:22;98714.56;;;25.19;20.48
77526;BME280;66627;29.424;-98.496;2023-03-05T01:02:47;98716.50;;;25.30;20.28
77526;BME280;66627;29.424;-98.496;2023-03-05T01:05:14;98719.84;;;25.36;20.14
77526;BME280;66627;29.424;-98.496;2023-03-05T01:07:39;98721.82;;;25.40;20.24
77526;BME280;66627;29.424;-98.496;2023-03-05T01:10:06;98721.95;;;25.33;20.63
77526;BME280;66627;29.424;-98.496;2023-03-05T01:12:30;98723.48;;;24.93;20.35
77526;BME280;66627;29.424;-98.496;2023-03-05T01:14:55;98724.27;;;24.72;20.44
77526;BME280;66627;29.424;-98.496;2023-03-05T01:17:21;98728.64;;;24.71;21.07
77526;BME280;66627;29.424;-98.496;2023-03-05T01:19:46;98727.32;;;25.04;20.96
77526;BME280;66627;29.424;-98.496;2023-03-05T01:22:12;98729.24;;;25.12;20.81
77526;BME280;66627;29.424;-98.496;2023-03-05T01:24:37;98734.92;;;24.82;21.35
77526;BME280;66627;29.424;-98.496;2023-03-05T01:27:03;98733.77;;;24.91;21.90
77526;BME280;66627;29.424;-98.496;2023-03-05T01:29:29;98737.57;;;24.62;21.54
77526;BME280;66627;29.424;-98.496;2023-03-05T01:31:53;98740.52;;;24.79;21.35
77526;BME280;66627;29.424;-98.496;2023-03-05T01:34:18;98742.01;;;24.75;21.96
77526;BME280;66627;29.424;-98.496;2023-03-05T01:36:44;98746.15;;;24.78;22.01
77526;BME280;66627;29.424;-98.496;2023-03-05T01:39:10;98746.95;;;24.47;21.87
77526;BME280;66627;29.424;-98.496;2023-03-05T01:41:35;98748.75;;;24.51;21.91
77526;BME280;66627;29.424;-98.496;2023-03-05T01:44:01;98755.14;;;24.11;22.03
77526;BME280;66627;29.424;-98.496;2023-03-05T01:46:31;98760.03;;;24.12;22.29
77526;BME280;66627;29.424;-98.496;2023-03-05T01:48:55;98764.33;;;24.18;22.13
77526;BME280;66627;29.424;-98.496;2023-03-05T01:51:21;98766.63;;;24.40;22.75
77526;BME280;66627;29.424;-98.496;2023-03-05T01:53:44;98773.74;;;24.24;22.73
77526;BME280;66627;29.424;-98.496;2023-03-05T01:56:09;98773.91;;;23.51;22.99
77526;BME280;66627;29.424;-98.496;2023-03-05T01:58:35;98776.25;;;23.84;23.18
77526;BME280;66627;29.424;-98.496;2023-03-05T02:01:01;98784.12;;;23.57;23.14
77526;BME280;66627;29.424;-98.496;2023-03-05T02:03:26;98786.69;;;23.37;23.74
77526;BME280;66627;29.424;-98.496;2023-03-05T02:05:51;98792.56;;;23.29;23.69
77526;BME280;66627;29.424;-98.496;2023-03-05T02:08:19;98799.19;;;23.24;23.93
77526;BME280;66627;29.424;-98.496;2023-03-05T02:10:44;98804.49;;;22.85;24.49
77526;BME280;66627;29.424;-98.496;2023-03-05T02:13:10;98808.14;;;22.96;24.66
77526;BME280;66627;29.424;-98.496;2023-03-05T02:15:34;98816.10;;;22.56;25.48
77526;BME280;66627;29.424;-98.496;2023-03-05T02:18:00;98820.79;;;23.00;25.43
77526;BME280;66627;29.424;-98.496;2023-03-05T02:20:26;98825.83;;;22.57;25.80
77526;BME280;66627;29.424;-98.496;2023-03-05T02:22:51;98829.63;;;22.61;25.95
77526;BME280;66627;29.424;-98.496;2023-03-05T02:25:18;98834.91;;;22.27;26.78
77526;BME280;66627;29.424;-98.496;2023-03-05T02:27:45;98841.37;;;22.68;26.78
77526;BME280;66627;29.424;-98.496;2023-03-05T02:30:08;98844.08;;;22.07;27.72
77526;BME280;66627;29.424;-98.496;2023-03-05T02:32:32;98842.29;;;21.87;28.57
77526;BME280;66627;29.424;-98.496;2023-03-05T02:34:57;98847.25;;;22.18;28.62
77526;BME280;66627;29.424;-98.496;2023-03-05T02:37:22;98852.43;;;21.12;29.84
77526;BME280;66627;29.424;-98.496;2023-03-05T02:39:48;98856.70;;;21.19;29.80
77526;BME280;66627;29.424;-98.496;2023-03-05T02:42:13;98857.73;;;21.58;29.96
77526;BME280;66627;29.424;-98.496;2023-03-05T02:44:39;98863.26;;;21.04;30.33
77526;BME280;66627;29.424;-98.496;2023-03-05T02:47:06;98872.28;;;21.40;30.00
77526;BME280;66627;29.424;-98.496;2023-03-05T02:49:31;98880.42;;;21.46;30.15
77526;BME280;66627;29.424;-98.496;2023-03-05T02:51:57;98882.25;;;22.01;30.02
77526;BME280;66627;29.424;-98.496;2023-03-05T02:54:22;98890.91;;;21.83;30.05
77526;BME280;66627;29.424;-98.496;2023-03-05T02:56:48;98892.90;;;21.40;30.60
77526;BME280;66627;29.424;-98.496;2023-03-05T02:59:13;98899.86;;;21.33;31.18
77526;BME280;66627;29.424;-98.496;2023-03-05T03:01:39;98906.40;;;20.92;31.76
77526;BME280;66627;29.424;-98.496;2023-03-05T03:04:05;98905.06;;;21.21;31.33
77526;BME280;66627;29.424;-98.496;2023-03-05T03:06:30;98913.95;;;20.92;31.50
77526;BME280;66627;29.424;-98.496;2023-03-05T03:08:55;98911.81;;;21.33;31.55
77526;BME280;66627;29.424;-98.496;2023-03-05T03:11:20;98920.75;;;21.78;31.39
77526;BME280;66627;29.424;-98.496;2023-03-05T03:13:46;98920.38;;;21.64;31.41
77526;BME280;66627;29.424;-98.496;2023-03-05T03:16:14;98927.70;;;21.45;31.38
77526;BME280;66627;29.424;-98.496;2023-03-05T03:18:37;98934.22;;;21.69;30.99
77526;BME280;66627;29.424;-98.496;2023-03-05T03:21:04;98941.90;;;21.13;31.33
77526;BME280;66627;29.424;-98.496;2023-03-05T03:23:28;98946.83;;;21.25;31.42
77526;BME280;66627;29.424;-98.496;2023-03-05T03:25:53;98955.14;;;21.00;31.58
77526;BME280;66627;29.424;-98.496;2023-03-05T03:28:19;98953.83;;;20.63;32.13
77526;BME280;66627;29.424;-98.496;2023-03-05T03:30:44;98960.08;;;20.62;31.60
77526;BME280;66627;29.424;-98.496;2023-03-05T03:33:11;98968.61;;;20.77;31.69
77526;BME280;66627;29.424;-98.496;2023-03-05T03:35:35;98967.51;;;21.08;31.75
77526;BME280;66627;29.424;-98.496;2023-03-05T03:38:01;98972.33;;;20.39;31.47
77526;BME280;66627;29.424;-98.496;2023-03-05T03:40:27;98977.78;;;20.85;31.45
77526;BME280;66627;29.424;-98.496;2023-03-05T03:42:53;98978.08;;;21.19;31.46
77526;BME280;66627;29.424;-98.496;2023-03-05T03:45:18;98983.78;;;20.99;31.43
77526;BME280;66627;29.424;-98.496;2023-03-05T03:47:44;98984.84;;;21.67;31.17
77526;BME280;66627;29.424;-98.496;2023-03-05T03:50:10;98986.74;;;21.15;31.17
77526;BME280;66627;29.424;-98.496;2023-03-05T03:52:35;98989.49;;;21.31;31.35
77526;BME280;66627;29.424;-98.496;2023-03-05T03:55:00;98992.08;;;20.56;31.44
77526;BME280;66627;29.424;-98.496;2023-03-05T03:57:25;98992.01;;;20.11;32.00
77526;BME280;66627;29.424;-98.496;2023-03-05T03:59:51;98999.25;;;20.65;31.69
77526;BME280;66627;29.424;-98.496;2023-03-05T04:02:17;98997.71;;;20.38;31.69
77526;BME280;66627;29.424;-98.496;2023-03-05T04:04:42;99005.04;;;20.66;31.66
77526;BME280;66627;29.424;-98.496;2023-03-05T04:07:08;99007.06;;;20.03;32.04
77526;BME280;66627;29.424;-98.496;2023-03-05T04:09:32;99009.45;;;20.34;32.21
77526;BME280;66627;29.424;-98.496;2023-03-05T04:11:58;99011.85;;;20.73;32.04
77526;BME280;66627;29.424;-98.496;2023-03-05T04:14:23;99014.93;;;20.15;32.04
77526;BME280;66627;29.424;-98.496;2023-03-05T04:16:48;99015.64;;;20.25;32.19
77526;BME280;66627;29.424;-98.496;2023-03-05T04:19:14;99019.35;;;20.91;31.78
77526;BME280;66627;29.424;-98.496;2023-03-05T04:21:39;99019.86;;;20.19;31.70
77526;BME280;66627;29.424;-98.496;2023-03-05T04:24:06;99022.69;;;20.29;32.09
77526;BME280;66627;29.424;-98.496;2023-03-05T04:26:30;99025.47;;;19.76;33.51
77526;BME280;66627;29.424;-98.496;2023-03-05T04:28:55;99022.77;;;19.35;33.01
77526;BME280;66627;29.424;-98.496;2023-03-05T04:31:21;99024.56;;;19.52;32.91
77526;BME280;66627;29.424;-98.496;2023-03-05T04:33:46;99029.86;;;19.78;32.58
77526;BME280;66627;29.424;-98.496;2023-03-05T04:36:12;99029.78;;;19.62;32.75
77526;BME280;66627;29.424;-98.496;2023-03-05T04:38:37;99032.39;;;20.34;32.29
77526;BME280;66627;29.424;-98.496;2023-03-05T04:41:03;99035.00;;;19.52;32.93
77526;BME280;66627;29.424;-98.496;2023-03-05T04:43:28;99036.64;;;19.64;33.33
77526;BME280;66627;29.424;-98.496;2023-03-05T04:45:54;99033.03;;;19.85;32.89
77526;BME280;66627;29.424;-98.496;2023-03-05T04:48:18;99035.38;;;19.75;33.24
77526;BME280;66627;29.424;-98.496;2023-03-05T04:50:45;99036.39;;;19.66;33.93
77526;BME280;66627;29.424;-98.496;2023-03-05T04:53:10;99033.26;;;19.29;34.09
77526;BME280;66627;29.424;-98.496;2023-03-05T04:55:35;99032.36;;;19.25;34.05
77526;BME280;66627;29.424;-98.496;2023-03-05T04:58:00;99033.20;;;19.79;33.79
77526;BME280;66627;29.424;-98.496;2023-03-05T05:00:26;99033.42;;;20.46;33.41
77526;BME280;66627;29.424;-98.496;2023-03-05T05:02:52;99035.05;;;19.50;33.78
77526;BME280;66627;29.424;-98.496;2023-03-05T05:05:20;99031.15;;;19.98;33.86
77526;BME280;66627;29.424;-98.496;2023-03-05T05:07:43;99026.25;;;19.75;33.99
77526;BME280;66627;29.424;-98.496;2023-03-05T05:10:09;99030.45;;;19.26;34.65
77526;BME280;66627;29.424;-98.496;2023-03-05T05:12:33;99035.44;;;19.21;34.98
77526;BME280;66627;29.424;-98.496;2023-03-05T05:14:59;99035.63;;;19.01;35.70
77526;BME280;66627;29.424;-98.496;2023-03-05T05:17:25;99034.35;;;19.04;35.93
77526;BME280;66627;29.424;-98.496;2023-03-05T05:19:50;99030.57;;;18.89;36.07
77526;BME280;66627;29.424;-98.496;2023-03-05T05:22:16;99026.15;;;18.89;36.60
77526;BME280;66627;29.424;-98.496;2023-03-05T05:24:42;99024.49;;;18.89;36.69
77526;BME280;66627;29.424;-98.496;2023-03-05T05:27:07;99025.61;;;18.01;38.37
77526;BME280;66627;29.424;-98.496;2023-03-05T05:29:33;99018.44;;;19.24;36.77
77526;BME280;66627;29.424;-98.496;2023-03-05T05:31:58;99021.78;;;18.32;37.89
77526;BME280;66627;29.424;-98.496;2023-03-05T05:34:24;99022.99;;;18.60;38.08
77526;BME280;66627;29.424;-98.496;2023-03-05T05:36:49;99025.62;;;18.48;38.00
77526;BME280;66627;29.424;-98.496;2023-03-05T05:39:14;99029.09;;;18.67;37.97
77526;BME280;66627;29.424;-98.496;2023-03-05T05:41:40;99030.45;;;18.28;38.82
77526;BME280;66627;29.424;-98.496;2023-03-05T05:44:05;99032.63;;;18.35;38.93
77526;BME280;66627;29.424;-98.496;2023-03-05T05:46:31;99029.27;;;18.02;39.23
77526;BME280;66627;29.424;-98.496;2023-03-05T05:48:56;99030.84;;;18.23;39.12
77526;BME280;66627;29.424;-98.496;2023-03-05T05:51:23;99029.96;;;18.35;39.22
77526;BME280;66627;29.424;-98.496;2023-03-05T05:53:48;99034.09;;;17.41;40.72
77526;BME280;66627;29.424;-98.496;2023-03-05T05:56:13;99032.93;;;18.13;39.60
77526;BME280;66627;29.424;-98.496;2023-03-05T05:58:39;99034.57;;;18.22;40.05
77526;BME280;66627;29.424;-98.496;2023-03-05T06:01:12;99037.83;;;17.85;40.46
77526;BME280;66627;29.424;-98.496;2023-03-05T06:03:29;99038.22;;;18.78;39.47
77526;BME280;66627;29.424;-98.496;2023-03-05T06:05:55;99041.33;;;18.46;39.58
77526;BME280;66627;29.424;-98.496;2023-03-05T06:08:20;99039.21;;;17.90;40.48
77526;BME280;66627;29.424;-98.496;2023-03-05T06:13:11;99034.43;;;18.70;40.51
77526;BME280;66627;29.424;-98.496;2023-03-05T06:15:36;99031.75;;;18.46;41.07
77526;BME280;66627;29.424;-98.496;2023-03-05T06:18:01;99030.48;;;18.07;41.41
77526;BME280;66627;29.424;-98.496;2023-03-05T06:20:27;99036.77;;;17.72;41.41
77526;BME280;66627;29.424;-98.496;2023-03-05T06:22:53;99033.32;;;18.39;41.16
77526;BME280;66627;29.424;-98.496;2023-03-05T06:25:18;99031.74;;;18.13;41.23
77526;BME280;66627;29.424;-98.496;2023-03-05T06:27:43;99034.22;;;17.61;42.56
77526;BME280;66627;29.424;-98.496;2023-03-05T06:30:10;99033.37;;;17.99;41.97
77526;BME280;66627;29.424;-98.496;2023-03-05T06:32:34;99028.98;;;17.55;43.10
77526;BME280;66627;29.424;-98.496;2023-03-05T06:34:59;99026.79;;;17.63;42.88
77526;BME280;66627;29.424;-98.496;2023-03-05T06:37:25;99027.39;;;17.60;43.40
77526;BME280;66627;29.424;-98.496;2023-03-05T06:39:51;99034.03;;;18.14;42.20
77526;BME280;66627;29.424;-98.496;2023-03-05T06:42:16;99035.71;;;17.48;43.37
77526;BME280;66627;29.424;-98.496;2023-03-05T06:44:42;99036.98;;;17.46;43.38
77526;BME280;66627;29.424;-98.496;2023-03-05T06:47:08;99038.18;;;17.38;44.00
77526;BME280;66627;29.424;-98.496;2023-03-05T06:49:33;99038.25;;;16.97;44.61
77526;BME280;66627;29.424;-98.496;2023-03-05T06:51:58;99036.60;;;17.53;44.00
77526;BME280;66627;29.424;-98.496;2023-03-05T06:54:24;99041.76;;;16.83;44.96
77526;BME280;66627;29.424;-98.496;2023-03-05T06:56:48;99043.80;;;16.90;45.05
77526;BME280;66627;29.424;-98.496;2023-03-05T06:59:15;99040.89;;;17.13;45.69
77526;BME280;66627;29.424;-98.496;2023-03-05T07:01:39;99037.79;;;17.60;44.49
77526;BME280;66627;29.424;-98.496;2023-03-05T07:04:05;99041.17;;;16.90;45.83
77526;BME280;66627;29.424;-98.496;2023-03-05T07:06:32;99038.84;;;17.07;45.41
77526;BME280;66627;29.424;-98.496;2023-03-05T07:08:55;99039.72;;;17.54;45.26
77526;BME280;66627;29.424;-98.496;2023-03-05T07:11:22;99039.30;;;16.72;45.45
77526;BME280;66627;29.424;-98.496;2023-03-05T07:13:47;99040.19;;;16.61;45.60
77526;BME280;66627;29.424;-98.496;2023-03-05T07:16:15;99039.38;;;17.49;45.36
77526;BME280;66627;29.424;-98.496;2023-03-05T07:18:37;99041.90;;;17.33;45.44
77526;BME280;66627;29.424;-98.496;2023-03-05T07:21:04;99043.42;;;17.21;45.79
77526;BME280;66627;29.424;-98.496;2023-03-05T07:23:29;99040.61;;;17.12;45.76
77526;BME280;66627;29.424;-98.496;2023-03-05T07:25:54;99040.51;;;16.62;46.72
77526;BME280;66627;29.424;-98.496;2023-03-05T07:28:20;99041.23;;;17.13;46.21
77526;BME280;66627;29.424;-98.496;2023-03-05T07:33:11;99040.71;;;16.61;47.19
77526;BME280;66627;29.424;-98.496;2023-03-05T07:35:40;99041.85;;;16.14;47.89
77526;BME280;66627;29.424;-98.496;2023-03-05T07:38:02;99039.61;;;16.02;49.29
77526;BME280;66627;29.424;-98.496;2023-03-05T07:40:28;99039.53;;;16.33;47.81
77526;BME280;66627;29.424;-98.496;2023-03-05T07:42:52;99040.77;;;16.88;46.94
77526;BME280;66627;29.424;-98.496;2023-03-05T07:45:18;99044.30;;;16.76;46.28
77526;BME280;66627;29.424;-98.496;2023-03-05T07:47:43;99047.20;;;16.87;47.32
77526;BME280;66627;29.424;-98.496;2023-03-05T07:50:10;99045.40;;;16.83;47.27
77526;BME280;66627;29.424;-98.496;2023-03-05T07:52:34;99048.21;;;16.62;47.49
77526;BME280;66627;29.424;-98.496;2023-03-05T07:55:01;99048.78;;;16.37;48.29
77526;BME280;66627;29.424;-98.496;2023-03-05T07:57:25;99048.70;;;16.33;47.83
77526;BME280;66627;29.424;-98.496;2023-03-05T07:59:52;99053.85;;;16.71;47.72
77526;BME280;66627;29.424;-98.496;2023-03-05T08:02:19;99056.03;;;16.80;47.37
77526;BME280;66627;29.424;-98.496;2023-03-05T08:04:43;99057.79;;;16.85;47.21
77526;BME280;66627;29.424;-98.496;2023-03-05T08:07:08;99061.84;;;16.83;47.53
77526;BME280;66627;29.424;-98.496;2023-03-05T08:09:33;99064.56;;;17.12;47.10
77526;BME280;66627;29.424;-98.496;2023-03-05T08:11:59;99062.57;;;16.52;48.46
77526;BME280;66627;29.424;-98.496;2023-03-05T08:14:24;99062.31;;;15.84;49.53
77526;BME280;66627;29.424;-98.496;2023-03-05T08:16:50;99065.56;;;16.45;47.66
77526;BME280;66627;29.424;-98.496;2023-03-05T08:19:15;99067.35;;;16.47;48.13
77526;BME280;66627;29.424;-98.496;2023-03-05T08:21:41;99063.78;;;16.22;48.66
77526;BME280;66627;29.424;-98.496;2023-03-05T08:24:09;99065.69;;;16.21;48.29
77526;BME280;66627;29.424;-98.496;2023-03-05T08:26:34;99064.73;;;16.50;48.78
77526;BME280;66627;29.424;-98.496;2023-03-05T08:28:57;99064.65;;;16.31;48.13
77526;BME280;66627;29.424;-98.496;2023-03-05T08:31:24;99064.56;;;16.50;48.25
77526;BME280;66627;29.424;-98.496;2023-03-05T08:33:49;99064.18;;;16.09;49.15
77526;BME280;66627;29.424;-98.496;2023-03-05T08:36:14;99063.15;;;16.20;49.12
77526;BME280;66627;29.424;-98.496;2023-03-05T08:38:39;99060.89;;;15.92;50.25
77526;BME280;66627;29.424;-98.496;2023-03-05T08:41:05;99060.39;;;16.27;48.96
77526;BME280;66627;29.424;-98.496;2023-03-05T08:43:30;99064.19;;;16.62;47.98
77526;BME280;66627;29.424;-98.496;2023-03-05T08:45:56;99065.65;;;15.67;48.68
77526;BME280;66627;29.424;-98.496;2023-03-05T08:48:21;99062.47;;;15.12;50.08
77526;BME280;66627;29.424;-98.496;2023-03-05T08:50:47;99063.48;;;15.81;49.84
77526;BME280;66627;29.424;-98.496;2023-03-05T08:53:13;99063.24;;;16.23;48.98
77526;BME280;66627;29.424;-98.496;2023-03-05T08:58:04;99065.70;;;15.43;51.46
77526;BME280;66627;29.424;-98.496;2023-03-05T09:00:29;99064.59;;;15.46;52.07
77526;BME280;66627;29.424;-98.496;2023-03-05T09:02:55;99063.43;;;15.55;51.23
77526;BME280;66627;29.424;-98.496;2023-03-05T09:05:21;99062.94;;;15.78;50.53
77526;BME280;66627;29.424;-98.496;2023-03-05T09:07:46;99061.26;;;15.15;51.40
77526;BME280;66627;29.424;-98.496;2023-03-05T09:10:13;99063.50;;;14.90;52.68
77526;BME280;66627;29.424;-98.496;2023-03-05T09:12:37;99058.95;;;15.98;50.20
77526;BME280;66627;29.424;-98.496;2023-03-05T09:15:04;99057.13;;;15.14;52.15
77526;BME280;66627;29.424;-98.496;2023-03-05T09:17:28;99056.92;;;14.29;53.34
77526;BME280;66627;29.424;-98.496;2023-03-05T09:19:53;99049.03;;;15.61;50.18
77526;BME280;66627;29.424;-98.496;2023-03-05T09:22:19;99048.00;;;15.86;49.41
77526;BME280;66627;29.424;-98.496;2023-03-05T09:24:45;99042.52;;;14.94;50.84
77526;BME280;66627;29.424;-98.496;2023-03-05T09:27:11;99043.14;;;14.80;51.95
77526;BME280;66627;29.424;-98.496;2023-03-05T09:29:36;99047.21;;;14.59;52.86
77526;BME280;66627;29.424;-98.496;2023-03-05T09:32:01;99040.79;;;14.83;51.89
77526;BME280;66627;29.424;-98.496;2023-03-05T09:34:28;99039.65;;;15.32;50.30
77526;BME280;66627;29.424;-98.496;2023-03-05T09:36:53;99043.28;;;14.32;51.81
77526;BME280;66627;29.424;-98.496;2023-03-05T09:39:18;99047.42;;;14.00;53.12
77526;BME280;66627;29.424;-98.496;2023-03-05T09:41:53;99045.66;;;13.43;54.60
77526;BME280;66627;29.424;-98.496;2023-03-05T09:44:22;99042.07;;;14.42;51.44
77526;BME280;66627;29.424;-98.496;2023-03-05T09:46:43;99042.39;;;15.07;49.87
77526;BME280;66627;29.424;-98.496;2023-03-05T09:49:09;99044.24;;;14.65;51.40
77526;BME280;66627;29.424;-98.496;2023-03-05T09:51:30;99045.02;;;14.73;51.75
77526;BME280;66627;29.424;-98.496;2023-03-05T09:53:59;99042.65;;;14.44;51.26
77526;BME280;66627;29.424;-98.496;2023-03-05T09:56:22;99038.94;;;15.00;50.43
77526;BME280;66627;29.424;-98.496;2023-03-05T09:58:45;99038.33;;;15.40;50.01
77526;BME280;66627;29.424;-98.496;2023-03-05T10:01:10;99043.80;;;14.89;51.18
77526;BME280;66627;29.424;-98.496;2023-03-05T10:03:43;99039.30;;;15.08;51.64
77526;BME280;66627;29.424;-98.496;2023-03-05T10:06:05;99039.22;;;14.49;52.53
77526;BME280;66627;29.424;-98.496;2023-03-05T10:08:32;99042.25;;;14.15;52.19
77526;BME280;66627;29.424;-98.496;2023-03-05T10:10:53;99045.68;;;13.70;53.73
77526;BME280;66627;29.424;-98.496;2023-03-05T10:13:21;99042.41;;;13.39;53.46
77526;BME280;66627;29.424;-98.496;2023-03-05T10:15:46;99041.91;;;13.62;54.56
77526;BME280;66627;29.424;-98.496;2023-03-05T10:18:16;99041.20;;;14.88;51.05
77526;BME280;66627;29.424;-98.496;2023-03-05T10:20:40;99044.69;;;14.83;50.13
77526;BME280;66627;29.424;-98.496;2023-03-05T10:23:13;99043.18;;;14.58;49.85
77526;BME280;66627;29.424;-98.496;2023-03-05T10:25:30;99041.69;;;14.07;50.97
77526;BME280;66627;29.424;-98.496;2023-03-05T10:27:52;99042.94;;;14.28;52.13
77526;BME280;66627;29.424;-98.496;2023-03-05T10:30:31;99051.62;;;12.49;54.09
77526;BME280;66627;29.424;-98.496;2023-03-05T10:32:46;99051.69;;;12.63;54.50
77526;BME280;66627;29.424;-98.496;2023-03-05T10:35:16;99055.10;;;12.67;53.66
77526;BME280;66627;29.424;-98.496;2023-03-05T10:37:47;99054.39;;;12.77;53.01
77526;BME280;66627;29.424;-98.496;2023-03-05T10:40:07;99054.93;;;12.82;52.88
77526;BME280;66627;29.424;-98.496;2023-03-05T10:42:28;99052.74;;;13.89;50.48
77526;BME280;66627;29.424;-98.496;2023-03-05T10:44:49;99048.12;;;14.50;48.60
77526;BME280;66627;29.424;-98.496;2023-03-05T10:47:20;99046.29;;;13.47;50.76
77526;BME280;66627;29.424;-98.496;2023-03-05T10:49:39;99048.82;;;13.69;51.25
77526;BME280;66627;29.424;-98.496;2023-03-05T10:52:06;99051.91;;;13.10;52.70
77526;BME280;66627;29.424;-98.496;2023-03-05T10:54:30;99053.60;;;13.18;52.07
77526;BME280;66627;29.424;-98.496;2023-03-05T10:57:07;99058.77;;;14.31;49.38
77526;BME280;66627;29.424;-98.496;2023-03-05T10:59:19;99060.88;;;14.33;48.88
77526;BME280;66627;29.424;-98.496;2023-03-05T11:04:25;99056.39;;;14.74;48.22
77526;BME280;66627;29.424;-98.496;2023-03-05T11:06:37;99062.10;;;14.63;48.48
77526;BME280;66627;29.424;-98.496;2023-03-05T11:09:17;99062.67;;;13.97;50.15
77526;BME280;66627;29.424;-98.496;2023-03-05T11:11:27;99070.47;;;12.83;53.53
77526;BME280;66627;29.424;-98.496;2023-03-05T11:13:55;99072.81;;;13.54;52.01
77526;BME280;66627;29.424;-98.496;2023-03-05T11:16:20;99081.96;;;11.79;54.80
77526;BME280;66627;29.424;-98.496;2023-03-05T11:21:10;99083.84;;;12.76;53.61
77526;BME280;66627;29.424;-98.496;2023-03-05T11:23:34;99082.86;;;12.71;52.81
77526;BME280;66627;29.424;-98.496;2023-03-05T11:26:02;99073.05;;;13.73;51.02
77526;BME280;66627;29.424;-98.496;2023-03-05T11:28:28;99072.75;;;12.73;53.25
77526;BME280;66627;29.424;-98.496;2023-03-05T11:31:00;99069.97;;;13.58;51.11
77526;BME280;66627;29.424;-98.496;2023-03-05T11:33:18;99070.92;;;14.14;49.64
77526;BME280;66627;29.424;-98.496;2023-03-05T11:35:43;99072.39;;;13.83;50.26
77526;BME280;66627;29.424;-98.496;2023-03-05T11:38:15;99077.52;;;14.16;50.32
77526;BME280;66627;29.424;-98.496;2023-03-05T11:40:33;99076.77;;;13.09;52.03
77526;BME280;66627;29.424;-98.496;2023-03-05T11:42:59;99078.27;;;13.66;51.23
77526;BME280;66627;29.424;-98.496;2023-03-05T11:45:25;99082.35;;;13.14;52.79
77526;BME280;66627;29.424;-98.496;2023-03-05T11:47:50;99081.62;;;13.61;50.71
77526;BME280;66627;29.424;-98.496;2023-03-05T11:50:21;99084.32;;;14.34;49.23
77526;BME280;66627;29.424;-98.496;2023-03-05T11:52:46;99082.66;;;14.08;49.10
77526;BME280;66627;29.424;-98.496;2023-03-05T11:55:11;99084.78;;;12.62;52.13
77526;BME280;66627;29.424;-98.496;2023-03-05T11:57:38;99086.20;;;12.74;53.39
77526;BME280;66627;29.424;-98.496;2023-03-05T11:59:56;99086.83;;;12.82;53.39
77526;BME280;66627;29.424;-98.496;2023-03-05T12:02:22;99087.02;;;12.34;53.30
77526;BME280;66627;29.424;-98.496;2023-03-05T12:04:47;99088.03;;;12.84;52.65
77526;BME280;66627;29.424;-98.496;2023-03-05T12:07:16;99090.18;;;12.59;53.71
77526;BME280;66627;29.424;-98.496;2023-03-05T12:09:40;99087.74;;;12.84;52.19
77526;BME280;66627;29.424;-98.496;2023-03-05T12:12:11;99088.00;;;13.35;51.05
77526;BME280;66627;29.424;-98.496;2023-03-05T12:14:35;99088.34;;;12.32;54.07
77526;BME280;66627;29.424;-98.496;2023-03-05T12:16:59;99097.35;;;11.37;55.81
77526;BME280;66627;29.424;-98.496;2023-03-05T12:19:32;99100.30;;;11.81;55.16
77526;BME280;66627;29.424;-98.496;2023-03-05T12:21:49;99101.59;;;11.86;54.64
77526;BME280;66627;29.424;-98.496;2023-03-05T12:29:00;99101.56;;;13.47;49.88
77526;BME280;66627;29.424;-98.496;2023-03-05T12:33:51;99106.08;;;13.82;49.51
77526;BME280;66627;29.424;-98.496;2023-03-05T12:36:35;99109.94;;;13.67;49.68
77526;BME280;66627;29.424;-98.496;2023-03-05T12:38:43;99106.92;;;13.61;48.94
77526;BME280;66627;29.424;-98.496;2023-03-05T12:43:33;99107.00;;;13.04;50.58
77526;BME280;66627;29.424;-98.496;2023-03-05T12:48:39;99112.55;;;12.01;53.29
77526;BME280;66627;29.424;-98.496;2023-03-05T12:50:49;99112.28;;;12.86;51.93
77526;BME280;66627;29.424;-98.496;2023-03-05T12:53:16;99110.45;;;13.45;49.55
77526;BME280;66627;29.424;-98.496;2023-03-05T12:55:49;99112.59;;;13.50;49.88